sensor_id;sensor_type;location;lat;lon;timestamp;P1;durP1;ratioP1;P2;durP2;ratioP2
34489;SDS011;20730;49.372;7.324;2024-01-30T00:01:50;14.60;;;8.30;;
34489;SDS011;20730;49.372;7.324;2024-01-30T00:04:17;14.73;;;9.05;;
34489;SDS011;20730;49.372;7.324;2024-01-30T00:06:44;15.73;;;9.35;;
34489;SDS011;20730;49.372;7.324;2024-01-30T00:09:10;13.18;;;8.73;;
34489;SDS011;20730;49.372;7.324;2024-01-30T00:11:37;12.45;;;9.25;;
34489;SDS011;20730;49.372;7.324;2024-01-30T00:14:04;17.55;;;9.35;;
34489;SDS011;20730;49.372;7.324;2024-01-30T00:16:32;14.93;;;9.45;;
34489;SDS011;20730;49.372;7.324;2024-01-30T00:18:58;14.35;;;9.27;;
34489;SDS011;20730;49.372;7.324;2024-01-30T00:21:25;14.75;;;9.85;;
34489;SDS011;20730;49.372;7.324;2024-01-30T00:23:52;17.45;;;8.98;;
34489;SDS011;20730;49.372;7.324;2024-01-30T00:26:18;17.88;;;10.23;;
34489;SDS011;20730;49.372;7.324;2024-01-30T00:28:45;12.77;;;9.20;;
34489;SDS011;20730;49.372;7.324;2024-01-30T00:31:11;14.43;;;8.98;;
34489;SDS011;20730;49.372;7.324;2024-01-30T00:33:39;16.55;;;8.93;;
34489;SDS011;20730;49.372;7.324;2024-01-30T00:36:08;14.05;;;9.35;;
34489;SDS011;20730;49.372;7.324;2024-01-30T00:38:35;14.93;;;9.13;;
34489;SDS011;20730;49.372;7.324;2024-01-30T00:41:02;14.40;;;9.50;;
34489;SDS011;20730;49.372;7.324;2024-01-30T00:43:28;16.25;;;8.70;;
34489;SDS011;20730;49.372;7.324;2024-01-30T00:45:55;16.48;;;10.55;;
34489;SDS011;20730;49.372;7.324;2024-01-30T00:48:22;16.05;;;10.40;;
34489;SDS011;20730;49.372;7.324;2024-01-30T00:50:48;18.10;;;10.32;;
34489;SDS011;20730;49.372;7.324;2024-01-30T00:53:14;18.42;;;10.63;;
34489;SDS011;20730;49.372;7.324;2024-01-30T00:55:41;14.80;;;9.52;;
34489;SDS011;20730;49.372;7.324;2024-01-30T00:58:07;16.58;;;9.77;;
34489;SDS011;20730;49.372;7.324;2024-01-30T01:00:34;23.83;;;11.02;;
34489;SDS011;20730;49.372;7.324;2024-01-30T01:03:01;16.48;;;9.88;;
34489;SDS011;20730;49.372;7.324;2024-01-30T01:05:28;20.33;;;10.98;;
34489;SDS011;20730;49.372;7.324;2024-01-30T01:07:55;14.57;;;9.43;;
34489;SDS011;20730;49.372;7.324;2024-01-30T01:10:22;14.48;;;9.90;;
34489;SDS011;20730;49.372;7.324;2024-01-30T01:12:49;14.75;;;9.93;;
34489;SDS011;20730;49.372;7.324;2024-01-30T01:15:16;16.15;;;10.40;;
34489;SDS011;20730;49.372;7.324;2024-01-30T01:17:42;14.77;;;10.27;;
34489;SDS011;20730;49.372;7.324;2024-01-30T01:20:09;14.20;;;9.75;;
34489;SDS011;20730;49.372;7.324;2024-01-30T01:22:37;17.27;;;10.05;;
34489;SDS011;20730;49.372;7.324;2024-01-30T01:25:06;16.25;;;10.20;;
34489;SDS011;20730;49.372;7.324;2024-01-30T01:27:36;15.75;;;10.48;;
34489;SDS011;20730;49.372;7.324;2024-01-30T01:30:08;16.17;;;10.23;;
34489;SDS011;20730;49.372;7.324;2024-01-30T01:32:36;19.77;;;11.32;;
34489;SDS011;20730;49.372;7.324;2024-01-30T01:35:03;22.83;;;11.75;;
34489;SDS011;20730;49.372;7.324;2024-01-30T01:37:32;18.77;;;10.50;;
34489;SDS011;20730;49.372;7.324;2024-01-30T01:39:59;18.23;;;12.30;;
34489;SDS011;20730;49.372;7.324;2024-01-30T01:42:26;20.15;;;11.38;;
34489;SDS011;20730;49.372;7.324;2024-01-30T01:44:52;15.90;;;10.43;;
34489;SDS011;20730;49.372;7.324;2024-01-30T01:47:19;20.35;;;10.32;;
34489;SDS011;20730;49.372;7.324;2024-01-30T01:49:45;16.52;;;10.65;;
34489;SDS011;20730;49.372;7.324;2024-01-30T01:52:12;15.80;;;11.13;;
34489;SDS011;20730;49.372;7.324;2024-01-30T01:54:38;16.83;;;11.55;;
34489;SDS011;20730;49.372;7.324;2024-01-30T01:57:05;20.90;;;11.43;;
34489;SDS011;20730;49.372;7.324;2024-01-30T01:59:32;19.30;;;11.75;;
34489;SDS011;20730;49.372;7.324;2024-01-30T02:01:58;20.65;;;11.55;;
34489;SDS011;20730;49.372;7.324;2024-01-30T02:04:25;19.58;;;11.82;;
34489;SDS011;20730;49.372;7.324;2024-01-30T02:06:52;20.35;;;12.68;;
34489;SDS011;20730;49.372;7.324;2024-01-30T02:09:19;20.70;;;12.70;;
34489;SDS011;20730;49.372;7.324;2024-01-30T02:11:46;19.88;;;11.88;;
34489;SDS011;20730;49.372;7.324;2024-01-30T02:14:12;15.35;;;10.60;;
34489;SDS011;20730;49.372;7.324;2024-01-30T02:16:39;19.60;;;10.52;;
34489;SDS011;20730;49.372;7.324;2024-01-30T02:19:05;16.55;;;10.50;;
34489;SDS011;20730;49.372;7.324;2024-01-30T02:21:34;17.75;;;11.23;;
34489;SDS011;20730;49.372;7.324;2024-01-30T02:24:01;18.98;;;11.45;;
34489;SDS011;20730;49.372;7.324;2024-01-30T02:26:29;21.75;;;12.00;;
34489;SDS011;20730;49.372;7.324;2024-01-30T02:28:55;19.63;;;12.25;;
34489;SDS011;20730;49.372;7.324;2024-01-30T02:31:22;19.60;;;12.13;;
34489;SDS011;20730;49.372;7.324;2024-01-30T02:33:48;24.17;;;12.75;;
34489;SDS011;20730;49.372;7.324;2024-01-30T02:36:15;20.50;;;12.88;;
34489;SDS011;20730;49.372;7.324;2024-01-30T02:38:42;19.40;;;12.30;;
34489;SDS011;20730;49.372;7.324;2024-01-30T02:41:08;19.67;;;12.07;;
34489;SDS011;20730;49.372;7.324;2024-01-30T02:43:35;19.67;;;13.10;;
34489;SDS011;20730;49.372;7.324;2024-01-30T02:46:01;19.63;;;12.05;;
34489;SDS011;20730;49.372;7.324;2024-01-30T02:48:28;18.63;;;12.70;;
34489;SDS011;20730;49.372;7.324;2024-01-30T02:50:54;20.17;;;12.43;;
34489;SDS011;20730;49.372;7.324;2024-01-30T02:53:21;22.10;;;13.18;;
34489;SDS011;20730;49.372;7.324;2024-01-30T02:55:48;20.38;;;13.75;;
34489;SDS011;20730;49.372;7.324;2024-01-30T02:58:14;23.17;;;13.38;;
34489;SDS011;20730;49.372;7.324;2024-01-30T03:00:41;27.98;;;13.93;;
34489;SDS011;20730;49.372;7.324;2024-01-30T03:03:07;27.45;;;14.68;;
34489;SDS011;20730;49.372;7.324;2024-01-30T03:05:34;25.25;;;15.25;;
34489;SDS011;20730;49.372;7.324;2024-01-30T03:08:00;23.38;;;14.15;;
34489;SDS011;20730;49.372;7.324;2024-01-30T03:10:27;25.60;;;14.38;;
34489;SDS011;20730;49.372;7.324;2024-01-30T03:12:54;21.33;;;13.70;;
34489;SDS011;20730;49.372;7.324;2024-01-30T03:15:21;20.92;;;13.13;;
34489;SDS011;20730;49.372;7.324;2024-01-30T03:17:47;18.88;;;12.60;;
34489;SDS011;20730;49.372;7.324;2024-01-30T03:20:14;21.05;;;12.18;;
34489;SDS011;20730;49.372;7.324;2024-01-30T03:22:41;21.42;;;12.98;;
34489;SDS011;20730;49.372;7.324;2024-01-30T03:25:07;22.00;;;13.15;;
34489;SDS011;20730;49.372;7.324;2024-01-30T03:27:35;18.20;;;11.55;;
34489;SDS011;20730;49.372;7.324;2024-01-30T03:30:01;22.02;;;12.93;;
34489;SDS011;20730;49.372;7.324;2024-01-30T03:32:28;16.88;;;11.82;;
34489;SDS011;20730;49.372;7.324;2024-01-30T03:34:54;18.60;;;12.30;;
34489;SDS011;20730;49.372;7.324;2024-01-30T03:37:21;22.10;;;11.95;;
34489;SDS011;20730;49.372;7.324;2024-01-30T03:39:48;19.25;;;11.00;;
34489;SDS011;20730;49.372;7.324;2024-01-30T03:42:15;21.52;;;12.23;;
34489;SDS011;20730;49.372;7.324;2024-01-30T03:44:41;22.55;;;11.73;;
34489;SDS011;20730;49.372;7.324;2024-01-30T03:47:08;16.13;;;10.68;;
34489;SDS011;20730;49.372;7.324;2024-01-30T03:49:35;18.52;;;11.07;;
34489;SDS011;20730;49.372;7.324;2024-01-30T03:52:02;18.08;;;9.88;;
34489;SDS011;20730;49.372;7.324;2024-01-30T03:54:28;15.40;;;10.32;;
34489;SDS011;20730;49.372;7.324;2024-01-30T03:56:55;19.15;;;9.85;;
34489;SDS011;20730;49.372;7.324;2024-01-30T03:59:21;18.10;;;9.73;;
34489;SDS011;20730;49.372;7.324;2024-01-30T04:01:50;13.50;;;9.30;;
34489;SDS011;20730;49.372;7.324;2024-01-30T04:04:18;15.85;;;9.35;;
34489;SDS011;20730;49.372;7.324;2024-01-30T04:06:44;14.32;;;9.30;;
34489;SDS011;20730;49.372;7.324;2024-01-30T04:09:12;17.10;;;10.50;;
34489;SDS011;20730;49.372;7.324;2024-01-30T04:11:39;16.85;;;10.60;;
34489;SDS011;20730;49.372;7.324;2024-01-30T04:14:06;15.35;;;10.27;;
34489;SDS011;20730;49.372;7.324;2024-01-30T04:16:32;18.23;;;10.00;;
34489;SDS011;20730;49.372;7.324;2024-01-30T04:18:59;12.65;;;9.23;;
34489;SDS011;20730;49.372;7.324;2024-01-30T04:21:26;12.68;;;9.05;;
34489;SDS011;20730;49.372;7.324;2024-01-30T04:23:52;14.52;;;9.52;;
34489;SDS011;20730;49.372;7.324;2024-01-30T04:26:19;16.05;;;8.80;;
34489;SDS011;20730;49.372;7.324;2024-01-30T04:28:46;13.82;;;8.40;;
34489;SDS011;20730;49.372;7.324;2024-01-30T04:31:12;12.63;;;9.05;;
34489;SDS011;20730;49.372;7.324;2024-01-30T04:33:39;15.73;;;9.73;;
34489;SDS011;20730;49.372;7.324;2024-01-30T04:36:08;13.77;;;9.02;;
34489;SDS011;20730;49.372;7.324;2024-01-30T04:38:37;15.15;;;8.88;;
34489;SDS011;20730;49.372;7.324;2024-01-30T04:41:04;13.73;;;8.50;;
34489;SDS011;20730;49.372;7.324;2024-01-30T04:43:30;13.02;;;8.27;;
34489;SDS011;20730;49.372;7.324;2024-01-30T04:45:57;12.77;;;8.00;;
34489;SDS011;20730;49.372;7.324;2024-01-30T04:48:24;12.38;;;7.07;;
34489;SDS011;20730;49.372;7.324;2024-01-30T04:50:50;11.18;;;6.80;;
34489;SDS011;20730;49.372;7.324;2024-01-30T04:53:17;12.15;;;6.05;;
34489;SDS011;20730;49.372;7.324;2024-01-30T04:55:43;9.07;;;5.93;;
34489;SDS011;20730;49.372;7.324;2024-01-30T04:58:10;10.40;;;6.10;;
34489;SDS011;20730;49.372;7.324;2024-01-30T05:00:36;11.65;;;5.93;;
34489;SDS011;20730;49.372;7.324;2024-01-30T05:03:03;12.98;;;6.25;;
34489;SDS011;20730;49.372;7.324;2024-01-30T05:05:29;9.60;;;6.13;;
34489;SDS011;20730;49.372;7.324;2024-01-30T05:07:56;8.35;;;5.65;;
34489;SDS011;20730;49.372;7.324;2024-01-30T05:10:22;11.27;;;5.72;;
34489;SDS011;20730;49.372;7.324;2024-01-30T05:12:49;11.45;;;6.75;;
34489;SDS011;20730;49.372;7.324;2024-01-30T05:15:16;10.02;;;5.80;;
34489;SDS011;20730;49.372;7.324;2024-01-30T05:17:42;10.13;;;6.05;;
34489;SDS011;20730;49.372;7.324;2024-01-30T05:20:09;9.52;;;5.93;;
34489;SDS011;20730;49.372;7.324;2024-01-30T05:22:37;9.38;;;6.10;;
34489;SDS011;20730;49.372;7.324;2024-01-30T05:25:04;9.13;;;5.68;;
34489;SDS011;20730;49.372;7.324;2024-01-30T05:27:31;8.05;;;5.57;;
34489;SDS011;20730;49.372;7.324;2024-01-30T05:29:57;8.45;;;5.65;;
34489;SDS011;20730;49.372;7.324;2024-01-30T05:32:24;10.13;;;5.88;;
34489;SDS011;20730;49.372;7.324;2024-01-30T05:34:50;10.68;;;6.32;;
34489;SDS011;20730;49.372;7.324;2024-01-30T05:37:17;9.05;;;6.20;;
34489;SDS011;20730;49.372;7.324;2024-01-30T05:39:44;19.67;;;9.10;;
34489;SDS011;20730;49.372;7.324;2024-01-30T05:42:11;27.60;;;13.75;;
34489;SDS011;20730;49.372;7.324;2024-01-30T05:44:38;21.60;;;10.38;;
34489;SDS011;20730;49.372;7.324;2024-01-30T05:47:04;17.35;;;8.65;;
34489;SDS011;20730;49.372;7.324;2024-01-30T05:49:31;14.35;;;8.32;;
34489;SDS011;20730;49.372;7.324;2024-01-30T05:51:57;12.60;;;7.10;;
34489;SDS011;20730;49.372;7.324;2024-01-30T05:54:24;13.55;;;6.53;;
34489;SDS011;20730;49.372;7.324;2024-01-30T05:56:52;7.63;;;5.28;;
34489;SDS011;20730;49.372;7.324;2024-01-30T05:59:18;9.52;;;5.97;;
34489;SDS011;20730;49.372;7.324;2024-01-30T06:01:46;10.10;;;5.80;;
34489;SDS011;20730;49.372;7.324;2024-01-30T06:04:12;8.40;;;5.30;;
34489;SDS011;20730;49.372;7.324;2024-01-30T06:06:39;6.93;;;5.28;;
34489;SDS011;20730;49.372;7.324;2024-01-30T06:09:06;9.15;;;5.75;;
34489;SDS011;20730;49.372;7.324;2024-01-30T06:11:35;11.95;;;5.45;;
34489;SDS011;20730;49.372;7.324;2024-01-30T06:14:02;7.30;;;5.18;;
34489;SDS011;20730;49.372;7.324;2024-01-30T06:16:28;9.02;;;5.10;;
34489;SDS011;20730;49.372;7.324;2024-01-30T06:18:56;9.52;;;5.47;;
34489;SDS011;20730;49.372;7.324;2024-01-30T06:21:23;9.82;;;5.55;;
34489;SDS011;20730;49.372;7.324;2024-01-30T06:23:50;10.95;;;4.95;;
34489;SDS011;20730;49.372;7.324;2024-01-30T06:26:16;8.43;;;5.25;;
34489;SDS011;20730;49.372;7.324;2024-01-30T06:28:43;9.75;;;5.05;;
34489;SDS011;20730;49.372;7.324;2024-01-30T06:31:10;10.00;;;5.88;;
34489;SDS011;20730;49.372;7.324;2024-01-30T06:33:37;10.27;;;5.50;;
34489;SDS011;20730;49.372;7.324;2024-01-30T06:36:04;14.60;;;6.05;;
34489;SDS011;20730;49.372;7.324;2024-01-30T06:38:31;9.80;;;5.43;;
34489;SDS011;20730;49.372;7.324;2024-01-30T06:40:57;11.43;;;6.68;;
34489;SDS011;20730;49.372;7.324;2024-01-30T06:43:24;11.07;;;6.68;;
34489;SDS011;20730;49.372;7.324;2024-01-30T06:45:50;9.27;;;5.82;;
34489;SDS011;20730;49.372;7.324;2024-01-30T06:48:18;11.68;;;5.85;;
34489;SDS011;20730;49.372;7.324;2024-01-30T06:50:45;9.50;;;5.55;;
34489;SDS011;20730;49.372;7.324;2024-01-30T06:53:12;8.85;;;5.35;;
34489;SDS011;20730;49.372;7.324;2024-01-30T06:55:38;14.45;;;7.05;;
34489;SDS011;20730;49.372;7.324;2024-01-30T06:58:05;11.77;;;7.55;;
34489;SDS011;20730;49.372;7.324;2024-01-30T07:00:31;15.48;;;8.35;;
34489;SDS011;20730;49.372;7.324;2024-01-30T07:02:58;8.85;;;6.03;;
34489;SDS011;20730;49.372;7.324;2024-01-30T07:05:24;11.57;;;7.35;;
34489;SDS011;20730;49.372;7.324;2024-01-30T07:07:51;12.05;;;6.45;;
34489;SDS011;20730;49.372;7.324;2024-01-30T07:10:18;11.23;;;5.53;;
34489;SDS011;20730;49.372;7.324;2024-01-30T07:12:45;9.80;;;5.50;;
34489;SDS011;20730;49.372;7.324;2024-01-30T07:15:12;8.88;;;5.75;;
34489;SDS011;20730;49.372;7.324;2024-01-30T07:17:41;8.25;;;5.10;;
34489;SDS011;20730;49.372;7.324;2024-01-30T07:20:07;8.18;;;5.47;;
34489;SDS011;20730;49.372;7.324;2024-01-30T07:22:39;9.85;;;5.78;;
34489;SDS011;20730;49.372;7.324;2024-01-30T07:25:06;7.85;;;5.47;;
34489;SDS011;20730;49.372;7.324;2024-01-30T07:27:33;8.50;;;5.50;;
34489;SDS011;20730;49.372;7.324;2024-01-30T07:29:59;11.70;;;6.10;;
34489;SDS011;20730;49.372;7.324;2024-01-30T07:32:26;7.95;;;5.43;;
34489;SDS011;20730;49.372;7.324;2024-01-30T07:34:52;11.63;;;6.10;;
34489;SDS011;20730;49.372;7.324;2024-01-30T07:37:33;10.35;;;5.78;;
34489;SDS011;20730;49.372;7.324;2024-01-30T07:40:01;11.57;;;6.05;;
34489;SDS011;20730;49.372;7.324;2024-01-30T07:42:27;9.30;;;5.63;;
34489;SDS011;20730;49.372;7.324;2024-01-30T07:44:54;10.02;;;5.88;;
34489;SDS011;20730;49.372;7.324;2024-01-30T07:47:21;11.95;;;6.40;;
34489;SDS011;20730;49.372;7.324;2024-01-30T07:49:47;8.45;;;5.60;;
34489;SDS011;20730;49.372;7.324;2024-01-30T07:52:14;9.15;;;5.85;;
34489;SDS011;20730;49.372;7.324;2024-01-30T07:54:41;13.60;;;5.63;;
34489;SDS011;20730;49.372;7.324;2024-01-30T07:57:07;8.10;;;5.65;;
34489;SDS011;20730;49.372;7.324;2024-01-30T07:59:34;10.82;;;5.28;;
34489;SDS011;20730;49.372;7.324;2024-01-30T08:02:00;9.15;;;5.05;;
34489;SDS011;20730;49.372;7.324;2024-01-30T08:04:27;9.68;;;5.70;;
34489;SDS011;20730;49.372;7.324;2024-01-30T08:06:54;9.68;;;5.70;;
34489;SDS011;20730;49.372;7.324;2024-01-30T08:09:21;9.38;;;5.28;;
34489;SDS011;20730;49.372;7.324;2024-01-30T08:11:47;9.32;;;5.43;;
34489;SDS011;20730;49.372;7.324;2024-01-30T08:14:14;7.95;;;5.53;;
34489;SDS011;20730;49.372;7.324;2024-01-30T08:16:40;9.98;;;5.38;;
34489;SDS011;20730;49.372;7.324;2024-01-30T08:19:07;8.27;;;5.13;;
34489;SDS011;20730;49.372;7.324;2024-01-30T08:21:34;7.45;;;5.07;;
34489;SDS011;20730;49.372;7.324;2024-01-30T08:24:05;8.10;;;4.90;;
34489;SDS011;20730;49.372;7.324;2024-01-30T08:26:32;8.60;;;5.38;;
34489;SDS011;20730;49.372;7.324;2024-01-30T08:28:59;8.93;;;5.47;;
34489;SDS011;20730;49.372;7.324;2024-01-30T08:31:26;11.23;;;5.28;;
34489;SDS011;20730;49.372;7.324;2024-01-30T08:33:53;9.75;;;5.90;;
34489;SDS011;20730;49.372;7.324;2024-01-30T08:36:19;9.02;;;5.30;;
34489;SDS011;20730;49.372;7.324;2024-01-30T08:38:46;7.85;;;4.72;;
34489;SDS011;20730;49.372;7.324;2024-01-30T08:41:12;10.52;;;5.45;;
34489;SDS011;20730;49.372;7.324;2024-01-30T08:43:39;9.85;;;5.03;;
34489;SDS011;20730;49.372;7.324;2024-01-30T08:46:06;7.60;;;4.90;;
34489;SDS011;20730;49.372;7.324;2024-01-30T08:48:32;8.68;;;5.32;;
34489;SDS011;20730;49.372;7.324;2024-01-30T08:50:59;10.65;;;5.28;;
34489;SDS011;20730;49.372;7.324;2024-01-30T08:53:25;8.80;;;5.50;;
34489;SDS011;20730;49.372;7.324;2024-01-30T08:55:52;10.05;;;5.68;;
34489;SDS011;20730;49.372;7.324;2024-01-30T08:58:19;8.07;;;5.13;;
34489;SDS011;20730;49.372;7.324;2024-01-30T09:00:45;6.78;;;5.38;;
34489;SDS011;20730;49.372;7.324;2024-01-30T09:03:12;10.00;;;5.68;;
34489;SDS011;20730;49.372;7.324;2024-01-30T09:05:39;8.07;;;5.40;;
34489;SDS011;20730;49.372;7.324;2024-01-30T09:08:05;8.60;;;5.32;;
34489;SDS011;20730;49.372;7.324;2024-01-30T09:10:32;7.80;;;5.43;;
34489;SDS011;20730;49.372;7.324;2024-01-30T09:12:59;8.40;;;5.47;;
34489;SDS011;20730;49.372;7.324;2024-01-30T09:15:25;7.85;;;5.20;;
34489;SDS011;20730;49.372;7.324;2024-01-30T09:17:52;9.30;;;5.47;;
34489;SDS011;20730;49.372;7.324;2024-01-30T09:20:19;8.38;;;5.78;;
34489;SDS011;20730;49.372;7.324;2024-01-30T09:22:46;9.40;;;6.00;;
34489;SDS011;20730;49.372;7.324;2024-01-30T09:25:13;11.32;;;6.00;;
34489;SDS011;20730;49.372;7.324;2024-01-30T09:27:39;8.95;;;6.47;;
34489;SDS011;20730;49.372;7.324;2024-01-30T09:30:06;13.68;;;6.93;;
34489;SDS011;20730;49.372;7.324;2024-01-30T09:32:33;9.82;;;6.70;;
34489;SDS011;20730;49.372;7.324;2024-01-30T09:35:00;11.48;;;6.25;;
34489;SDS011;20730;49.372;7.324;2024-01-30T09:37:27;9.50;;;6.43;;
34489;SDS011;20730;49.372;7.324;2024-01-30T09:39:54;8.70;;;6.07;;
34489;SDS011;20730;49.372;7.324;2024-01-30T09:42:22;10.75;;;6.15;;
34489;SDS011;20730;49.372;7.324;2024-01-30T09:44:52;10.00;;;5.82;;
34489;SDS011;20730;49.372;7.324;2024-01-30T09:47:19;9.48;;;6.35;;
34489;SDS011;20730;49.372;7.324;2024-01-30T09:49:46;12.10;;;6.15;;
34489;SDS011;20730;49.372;7.324;2024-01-30T09:52:13;10.90;;;6.65;;
34489;SDS011;20730;49.372;7.324;2024-01-30T09:54:39;9.55;;;6.65;;
34489;SDS011;20730;49.372;7.324;2024-01-30T09:57:06;11.15;;;6.97;;
34489;SDS011;20730;49.372;7.324;2024-01-30T09:59:34;10.50;;;7.35;;
34489;SDS011;20730;49.372;7.324;2024-01-30T10:02:00;11.95;;;7.32;;
34489;SDS011;20730;49.372;7.324;2024-01-30T10:04:27;10.55;;;6.88;;
34489;SDS011;20730;49.372;7.324;2024-01-30T10:06:54;16.15;;;7.38;;
34489;SDS011;20730;49.372;7.324;2024-01-30T10:09:21;12.52;;;7.22;;
34489;SDS011;20730;49.372;7.324;2024-01-30T10:11:48;11.07;;;7.10;;
34489;SDS011;20730;49.372;7.324;2024-01-30T10:14:15;10.50;;;6.55;;
34489;SDS011;20730;49.372;7.324;2024-01-30T10:16:42;8.80;;;5.85;;
34489;SDS011;20730;49.372;7.324;2024-01-30T10:19:08;9.07;;;6.15;;
34489;SDS011;20730;49.372;7.324;2024-01-30T10:21:35;10.48;;;6.63;;
34489;SDS011;20730;49.372;7.324;2024-01-30T10:24:01;10.60;;;6.10;;
34489;SDS011;20730;49.372;7.324;2024-01-30T10:26:28;16.40;;;6.65;;
34489;SDS011;20730;49.372;7.324;2024-01-30T10:28:55;11.77;;;6.38;;
34489;SDS011;20730;49.372;7.324;2024-01-30T10:31:22;12.82;;;6.30;;
34489;SDS011;20730;49.372;7.324;2024-01-30T10:33:49;11.05;;;6.57;;
34489;SDS011;20730;49.372;7.324;2024-01-30T10:36:16;10.70;;;6.00;;
34489;SDS011;20730;49.372;7.324;2024-01-30T10:38:46;11.90;;;6.72;;
34489;SDS011;20730;49.372;7.324;2024-01-30T10:41:15;14.80;;;6.78;;
34489;SDS011;20730;49.372;7.324;2024-01-30T10:43:47;12.75;;;7.45;;
34489;SDS011;20730;49.372;7.324;2024-01-30T10:46:18;11.00;;;6.60;;
34489;SDS011;20730;49.372;7.324;2024-01-30T10:48:46;10.18;;;6.60;;
34489;SDS011;20730;49.372;7.324;2024-01-30T10:51:16;13.90;;;6.30;;
34489;SDS011;20730;49.372;7.324;2024-01-30T10:53:44;10.73;;;6.50;;
34489;SDS011;20730;49.372;7.324;2024-01-30T10:56:12;11.27;;;6.97;;
34489;SDS011;20730;49.372;7.324;2024-01-30T10:58:40;12.02;;;6.68;;
34489;SDS011;20730;49.372;7.324;2024-01-30T11:01:07;11.13;;;6.70;;
34489;SDS011;20730;49.372;7.324;2024-01-30T11:03:34;10.32;;;7.07;;
34489;SDS011;20730;49.372;7.324;2024-01-30T11:06:02;13.45;;;7.43;;
34489;SDS011;20730;49.372;7.324;2024-01-30T11:08:31;11.80;;;6.85;;
34489;SDS011;20730;49.372;7.324;2024-01-30T11:10:58;9.43;;;6.07;;
34489;SDS011;20730;49.372;7.324;2024-01-30T11:13:31;13.35;;;6.93;;
34489;SDS011;20730;49.372;7.324;2024-01-30T11:16:02;10.32;;;6.72;;
34489;SDS011;20730;49.372;7.324;2024-01-30T11:20:58;11.32;;;6.30;;
34489;SDS011;20730;49.372;7.324;2024-01-30T11:23:27;19.42;;;7.13;;
34489;SDS011;20730;49.372;7.324;2024-01-30T11:25:55;14.05;;;7.07;;
34489;SDS011;20730;49.372;7.324;2024-01-30T11:28:22;12.32;;;7.13;;
34489;SDS011;20730;49.372;7.324;2024-01-30T11:30:49;10.63;;;6.70;;
34489;SDS011;20730;49.372;7.324;2024-01-30T11:33:28;10.50;;;6.97;;
34489;SDS011;20730;49.372;7.324;2024-01-30T11:36:00;10.27;;;6.90;;
34489;SDS011;20730;49.372;7.324;2024-01-30T11:38:27;12.50;;;7.35;;
34489;SDS011;20730;49.372;7.324;2024-01-30T11:40:54;13.25;;;7.63;;
34489;SDS011;20730;49.372;7.324;2024-01-30T11:43:22;10.80;;;6.97;;
34489;SDS011;20730;49.372;7.324;2024-01-30T11:45:48;12.02;;;7.25;;
34489;SDS011;20730;49.372;7.324;2024-01-30T11:48:15;11.18;;;6.53;;
34489;SDS011;20730;49.372;7.324;2024-01-30T11:50:42;10.38;;;6.90;;
34489;SDS011;20730;49.372;7.324;2024-01-30T11:53:11;13.40;;;7.28;;
34489;SDS011;20730;49.372;7.324;2024-01-30T11:55:37;11.65;;;6.72;;
34489;SDS011;20730;49.372;7.324;2024-01-30T11:58:04;13.80;;;7.07;;
34489;SDS011;20730;49.372;7.324;2024-01-30T12:00:31;12.07;;;7.78;;
34489;SDS011;20730;49.372;7.324;2024-01-30T12:03:00;11.50;;;6.93;;
34489;SDS011;20730;49.372;7.324;2024-01-30T12:05:27;11.25;;;7.68;;
34489;SDS011;20730;49.372;7.324;2024-01-30T12:07:54;11.27;;;7.25;;
34489;SDS011;20730;49.372;7.324;2024-01-30T12:10:21;14.13;;;7.20;;
34489;SDS011;20730;49.372;7.324;2024-01-30T12:12:49;11.98;;;7.40;;
34489;SDS011;20730;49.372;7.324;2024-01-30T12:15:16;10.98;;;7.40;;
34489;SDS011;20730;49.372;7.324;2024-01-30T12:17:43;10.45;;;7.00;;
34489;SDS011;20730;49.372;7.324;2024-01-30T12:20:13;11.80;;;7.95;;
34489;SDS011;20730;49.372;7.324;2024-01-30T12:22:41;12.40;;;7.65;;
34489;SDS011;20730;49.372;7.324;2024-01-30T12:25:08;11.20;;;7.05;;
34489;SDS011;20730;49.372;7.324;2024-01-30T12:27:38;12.63;;;6.93;;
34489;SDS011;20730;49.372;7.324;2024-01-30T12:30:08;13.80;;;7.53;;
34489;SDS011;20730;49.372;7.324;2024-01-30T12:32:35;10.07;;;6.63;;
34489;SDS011;20730;49.372;7.324;2024-01-30T12:35:03;11.48;;;7.50;;
34489;SDS011;20730;49.372;7.324;2024-01-30T12:37:30;14.85;;;6.80;;
34489;SDS011;20730;49.372;7.324;2024-01-30T12:39:56;14.98;;;6.75;;
34489;SDS011;20730;49.372;7.324;2024-01-30T12:42:23;11.02;;;6.70;;
34489;SDS011;20730;49.372;7.324;2024-01-30T12:44:50;10.68;;;6.68;;
34489;SDS011;20730;49.372;7.324;2024-01-30T12:47:16;13.98;;;7.40;;
34489;SDS011;20730;49.372;7.324;2024-01-30T12:49:43;12.20;;;7.07;;
34489;SDS011;20730;49.372;7.324;2024-01-30T12:52:11;10.43;;;6.63;;
34489;SDS011;20730;49.372;7.324;2024-01-30T12:54:38;11.43;;;6.70;;
34489;SDS011;20730;49.372;7.324;2024-01-30T12:57:05;10.18;;;6.32;;
34489;SDS011;20730;49.372;7.324;2024-01-30T12:59:32;10.32;;;7.03;;
34489;SDS011;20730;49.372;7.324;2024-01-30T13:02:00;8.75;;;6.28;;
34489;SDS011;20730;49.372;7.324;2024-01-30T13:04:27;12.60;;;6.78;;
34489;SDS011;20730;49.372;7.324;2024-01-30T13:06:53;8.88;;;5.97;;
34489;SDS011;20730;49.372;7.324;2024-01-30T13:09:20;13.07;;;6.38;;
34489;SDS011;20730;49.372;7.324;2024-01-30T13:11:47;9.80;;;6.63;;
34489;SDS011;20730;49.372;7.324;2024-01-30T13:14:14;12.18;;;6.57;;
34489;SDS011;20730;49.372;7.324;2024-01-30T13:16:40;10.30;;;6.22;;
34489;SDS011;20730;49.372;7.324;2024-01-30T13:19:07;13.45;;;5.93;;
34489;SDS011;20730;49.372;7.324;2024-01-30T13:21:34;9.52;;;6.18;;
34489;SDS011;20730;49.372;7.324;2024-01-30T13:24:00;10.70;;;6.45;;
34489;SDS011;20730;49.372;7.324;2024-01-30T13:26:27;10.88;;;5.65;;
34489;SDS011;20730;49.372;7.324;2024-01-30T13:28:54;10.55;;;6.55;;
34489;SDS011;20730;49.372;7.324;2024-01-30T13:31:20;9.70;;;6.05;;
34489;SDS011;20730;49.372;7.324;2024-01-30T13:33:47;8.88;;;6.40;;
34489;SDS011;20730;49.372;7.324;2024-01-30T13:36:15;10.88;;;6.15;;
34489;SDS011;20730;49.372;7.324;2024-01-30T13:38:42;10.93;;;6.30;;
34489;SDS011;20730;49.372;7.324;2024-01-30T13:41:08;11.68;;;6.15;;
34489;SDS011;20730;49.372;7.324;2024-01-30T13:43:35;9.13;;;5.93;;
34489;SDS011;20730;49.372;7.324;2024-01-30T13:46:01;8.00;;;5.80;;
34489;SDS011;20730;49.372;7.324;2024-01-30T13:48:28;10.63;;;5.88;;
34489;SDS011;20730;49.372;7.324;2024-01-30T13:50:56;12.00;;;5.78;;
34489;SDS011;20730;49.372;7.324;2024-01-30T13:53:22;8.43;;;5.43;;
34489;SDS011;20730;49.372;7.324;2024-01-30T13:55:49;11.55;;;6.78;;
34489;SDS011;20730;49.372;7.324;2024-01-30T13:58:16;11.30;;;6.18;;
34489;SDS011;20730;49.372;7.324;2024-01-30T14:00:42;9.95;;;5.93;;
34489;SDS011;20730;49.372;7.324;2024-01-30T14:03:09;11.15;;;6.45;;
34489;SDS011;20730;49.372;7.324;2024-01-30T14:05:35;13.30;;;6.70;;
34489;SDS011;20730;49.372;7.324;2024-01-30T14:08:02;11.60;;;6.07;;
34489;SDS011;20730;49.372;7.324;2024-01-30T14:10:29;13.07;;;6.47;;
34489;SDS011;20730;49.372;7.324;2024-01-30T14:12:55;8.27;;;6.00;;
34489;SDS011;20730;49.372;7.324;2024-01-30T14:15:23;10.32;;;6.35;;
34489;SDS011;20730;49.372;7.324;2024-01-30T14:17:55;12.50;;;6.22;;
34489;SDS011;20730;49.372;7.324;2024-01-30T14:20:22;12.43;;;6.75;;
34489;SDS011;20730;49.372;7.324;2024-01-30T14:22:49;11.98;;;6.90;;
34489;SDS011;20730;49.372;7.324;2024-01-30T14:25:16;12.55;;;8.07;;
34489;SDS011;20730;49.372;7.324;2024-01-30T14:27:43;12.85;;;7.00;;
34489;SDS011;20730;49.372;7.324;2024-01-30T14:30:10;11.80;;;7.70;;
34489;SDS011;20730;49.372;7.324;2024-01-30T14:32:36;12.02;;;6.65;;
34489;SDS011;20730;49.372;7.324;2024-01-30T14:35:04;12.10;;;7.68;;
34489;SDS011;20730;49.372;7.324;2024-01-30T14:37:31;13.10;;;7.20;;